createdAt,value
2023-04-27T00:01:25.063Z,8.10
2023-04-27T00:03:51.868Z,8.10
2023-04-27T00:06:18.749Z,8.00
2023-04-27T00:08:45.483Z,8.00
2023-04-27T00:11:12.203Z,7.90
2023-04-27T00:13:38.911Z,8.00
2023-04-27T00:16:06.023Z,7.90
2023-04-27T00:18:32.816Z,7.80
2023-04-27T00:20:59.760Z,7.80
2023-04-27T00:23:26.896Z,7.80
2023-04-27T00:25:55.750Z,7.80
2023-04-27T00:28:22.414Z,7.80
2023-04-27T00:30:49.177Z,7.70
2023-04-27T00:33:17.037Z,7.80
2023-04-27T00:35:43.751Z,7.70
2023-04-27T00:38:11.000Z,7.60
2023-04-27T00:40:38.387Z,7.50
2023-04-27T00:43:05.158Z,7.50
2023-04-27T00:45:31.913Z,7.50
2023-04-27T00:47:58.847Z,7.40
2023-04-27T00:50:29.904Z,7.40
2023-04-27T00:52:56.699Z,7.40
2023-04-27T00:55:24.155Z,7.40
2023-04-27T00:57:51.016Z,7.30
2023-04-27T01:00:18.004Z,7.20
2023-04-27T01:02:44.812Z,7.20
2023-04-27T01:05:11.913Z,7.20
2023-04-27T01:07:39.462Z,7.20
2023-04-27T01:10:07.176Z,7.10
2023-04-27T01:12:33.928Z,7.20
2023-04-27T01:15:00.653Z,7.10
2023-04-27T01:17:27.386Z,7.10
2023-04-27T01:19:55.442Z,7.20
2023-04-27T01:22:22.179Z,7.10
2023-04-27T01:24:48.922Z,7.10
2023-04-27T01:27:15.744Z,7.10
2023-04-27T01:29:43.972Z,7.10
2023-04-27T01:32:13.490Z,7.10
2023-04-27T01:34:40.186Z,7.00
2023-04-27T01:37:06.846Z,7.10
2023-04-27T01:39:33.672Z,7.00
2023-04-27T01:42:00.366Z,7.00
2023-04-27T01:44:27.182Z,7.00
2023-04-27T01:46:53.896Z,7.00
2023-04-27T01:49:20.623Z,7.00
2023-04-27T01:51:47.357Z,7.10
2023-04-27T01:54:14.025Z,7.10
2023-04-27T01:56:41.095Z,7.00
2023-04-27T01:59:07.909Z,7.00
2023-04-27T02:01:34.692Z,6.90
2023-04-27T02:04:01.630Z,7.00
2023-04-27T02:06:28.473Z,6.90
2023-04-27T02:08:55.210Z,6.80
2023-04-27T02:11:22.171Z,6.90
2023-04-27T02:13:48.961Z,6.90
2023-04-27T02:16:15.739Z,6.90
2023-04-27T02:18:42.807Z,6.80
2023-04-27T02:21:10.757Z,6.80
2023-04-27T02:23:37.570Z,6.90
2023-04-27T02:26:04.329Z,6.90
2023-04-27T02:28:31.229Z,6.90
2023-04-27T02:30:58.704Z,6.90
2023-04-27T02:33:25.398Z,6.80
2023-04-27T02:35:52.083Z,6.80
2023-04-27T02:38:18.831Z,6.80
2023-04-27T02:40:45.633Z,6.80
2023-04-27T02:43:12.525Z,6.80
2023-04-27T02:45:39.275Z,6.70
2023-04-27T02:48:06.290Z,6.80
2023-04-27T02:50:33.082Z,6.70
2023-04-27T02:52:59.819Z,6.80
2023-04-27T02:55:27.578Z,6.80
2023-04-27T02:57:54.731Z,6.80
2023-04-27T03:00:22.027Z,6.70
2023-04-27T03:02:48.826Z,6.70
2023-04-27T03:05:15.983Z,6.70
2023-04-27T03:07:42.706Z,6.70
2023-04-27T03:10:09.637Z,6.80
2023-04-27T03:12:36.397Z,6.70
2023-04-27T03:15:03.616Z,6.80
2023-04-27T03:17:30.420Z,6.80
2023-04-27T03:19:57.234Z,6.80
2023-04-27T03:22:23.978Z,6.70
2023-04-27T03:24:50.703Z,6.70
2023-04-27T03:27:17.428Z,6.70
2023-04-27T03:29:44.192Z,6.70
2023-04-27T03:32:10.965Z,6.70
2023-04-27T03:34:37.769Z,6.70
2023-04-27T03:37:04.475Z,6.70
2023-04-27T03:39:31.347Z,6.70
2023-04-27T03:41:58.023Z,6.70
2023-04-27T03:44:24.726Z,6.70
2023-04-27T03:46:51.444Z,6.70
2023-04-27T03:49:18.217Z,6.70
2023-04-27T03:51:44.959Z,6.70
2023-04-27T03:54:11.659Z,6.70
2023-04-27T03:56:38.364Z,6.70
2023-04-27T03:59:05.323Z,6.70
2023-04-27T04:01:33.470Z,6.70
2023-04-27T04:04:00.330Z,6.80
2023-04-27T04:06:28.043Z,6.70
2023-04-27T04:08:54.925Z,6.70
2023-04-27T04:11:22.448Z,6.70
2023-04-27T04:13:49.113Z,6.70
2023-04-27T04:16:16.032Z,6.70
2023-04-27T04:18:42.767Z,6.70
2023-04-27T04:21:11.263Z,6.70
2023-04-27T04:23:38.416Z,6.70
2023-04-27T04:26:05.706Z,6.70
2023-04-27T04:28:35.781Z,6.70
2023-04-27T04:31:02.906Z,6.70
2023-04-27T04:33:29.656Z,6.60
2023-04-27T04:35:56.313Z,6.60
2023-04-27T04:38:23.856Z,6.60
2023-04-27T04:40:51.215Z,6.60
2023-04-27T04:43:18.189Z,6.50
2023-04-27T04:45:44.835Z,6.50
2023-04-27T04:48:11.552Z,6.50
2023-04-27T04:50:39.519Z,6.50
2023-04-27T04:53:06.540Z,6.60
2023-04-27T04:55:33.226Z,6.60
2023-04-27T04:57:59.988Z,6.60
2023-04-27T05:00:26.768Z,6.60
2023-04-27T05:02:53.607Z,6.60
2023-04-27T05:05:20.540Z,6.70
2023-04-27T05:07:47.265Z,6.70
2023-04-27T05:10:13.970Z,6.70
2023-04-27T05:12:40.745Z,6.70
2023-04-27T05:15:07.928Z,6.70
2023-04-27T05:17:34.667Z,6.80
2023-04-27T05:20:01.480Z,6.80
2023-04-27T05:22:28.225Z,6.90
2023-04-27T05:24:55.787Z,6.90
2023-04-27T05:27:22.632Z,6.90
2023-04-27T05:29:49.477Z,6.90
2023-04-27T05:32:16.224Z,6.90
2023-04-27T05:34:45.722Z,7.00
2023-04-27T05:37:14.219Z,7.00
2023-04-27T05:39:41.018Z,7.10
2023-04-27T05:42:07.692Z,7.10
2023-04-27T05:44:34.428Z,7.10
2023-04-27T05:47:01.322Z,7.10
2023-04-27T05:49:28.024Z,7.20
2023-04-27T05:51:54.766Z,7.20
2023-04-27T05:54:21.442Z,7.20
2023-04-27T05:56:48.545Z,7.30
2023-04-27T05:59:15.641Z,7.30
2023-04-27T06:01:42.783Z,7.40
2023-04-27T06:04:09.720Z,7.60
2023-04-27T06:06:37.072Z,7.70
2023-04-27T06:09:04.182Z,7.80
2023-04-27T06:11:31.032Z,7.90
2023-04-27T06:13:57.839Z,8.10
2023-04-27T06:16:24.870Z,8.20
2023-04-27T06:18:52.175Z,8.30
2023-04-27T06:21:18.931Z,8.40
2023-04-27T06:23:45.814Z,8.50
2023-04-27T06:26:12.537Z,8.50
2023-04-27T06:28:39.247Z,8.60
2023-04-27T06:31:06.370Z,8.70
2023-04-27T06:33:33.563Z,8.80
2023-04-27T06:36:01.245Z,8.80
2023-04-27T06:38:28.250Z,8.90
2023-04-27T06:40:55.085Z,9.00
2023-04-27T06:43:22.262Z,9.10
2023-04-27T06:45:49.106Z,9.10
2023-04-27T06:48:17.714Z,9.10
2023-04-27T06:50:44.446Z,9.20
2023-04-27T06:53:11.275Z,9.20
2023-04-27T06:55:38.081Z,9.20
2023-04-27T06:58:04.835Z,9.30
2023-04-27T07:00:31.920Z,9.30
2023-04-27T07:02:58.998Z,9.40
2023-04-27T07:05:26.082Z,9.40
2023-04-27T07:07:52.864Z,9.40
2023-04-27T07:10:19.658Z,9.50
2023-04-27T07:12:46.617Z,9.50
2023-04-27T07:15:13.446Z,9.60
2023-04-27T07:17:40.214Z,9.60
2023-04-27T07:20:08.640Z,9.70
2023-04-27T07:22:35.607Z,9.70
2023-04-27T07:25:02.412Z,9.70
2023-04-27T07:27:29.160Z,9.80
2023-04-27T07:29:56.625Z,9.80
2023-04-27T07:32:23.909Z,9.90
2023-04-27T07:34:54.171Z,9.90
2023-04-27T07:37:22.073Z,9.90
2023-04-27T07:39:54.443Z,10.00
2023-04-27T07:42:25.024Z,10.00
2023-04-27T07:44:52.990Z,10.10
2023-04-27T07:47:19.786Z,10.10
2023-04-27T07:49:47.107Z,10.20
2023-04-27T07:52:14.388Z,10.20
2023-04-27T07:54:41.081Z,10.20
2023-04-27T07:57:11.730Z,10.20
2023-04-27T07:59:38.827Z,10.30
2023-04-27T08:02:18.434Z,10.30
2023-04-27T08:04:47.031Z,10.50
2023-04-27T08:07:18.224Z,10.60
2023-04-27T08:09:45.122Z,10.70
2023-04-27T08:12:11.931Z,10.80
2023-04-27T08:14:38.731Z,10.80
2023-04-27T08:17:05.806Z,10.90
2023-04-27T08:19:32.586Z,11.00
2023-04-27T08:21:59.311Z,11.00
2023-04-27T08:24:26.167Z,11.10
2023-04-27T08:26:52.882Z,11.10
2023-04-27T08:29:27.658Z,11.30
2023-04-27T08:31:57.150Z,11.30
2023-04-27T08:34:24.221Z,11.30
2023-04-27T08:36:51.205Z,11.30
2023-04-27T08:39:18.264Z,11.40
2023-04-27T08:41:45.276Z,11.40
2023-04-27T08:44:12.084Z,11.50
2023-04-27T08:46:38.992Z,11.50
2023-04-27T08:49:07.243Z,11.50
2023-04-27T08:51:34.025Z,11.60
2023-04-27T08:54:00.840Z,11.60
2023-04-27T08:56:29.187Z,11.70
2023-04-27T08:58:56.808Z,11.70
2023-04-27T09:01:24.232Z,11.80
2023-04-27T09:03:58.338Z,11.90
2023-04-27T09:06:32.627Z,11.90
2023-04-27T09:08:59.614Z,12.00
2023-04-27T09:11:39.554Z,12.10
2023-04-27T09:14:20.697Z,12.10
2023-04-27T09:17:00.374Z,12.20
2023-04-27T09:19:28.587Z,12.30
2023-04-27T09:22:08.839Z,12.40
2023-04-27T09:24:35.889Z,12.40
2023-04-27T09:27:03.365Z,12.50
2023-04-27T09:29:37.514Z,12.60
2023-04-27T09:32:17.665Z,12.60
2023-04-27T09:34:44.802Z,12.80
2023-04-27T09:37:11.599Z,12.80
2023-04-27T09:39:38.666Z,12.90
2023-04-27T09:42:05.643Z,13.00
2023-04-27T09:44:32.715Z,13.10
2023-04-27T09:47:00.368Z,13.20
2023-04-27T09:49:28.441Z,13.20
2023-04-27T09:51:57.204Z,13.30
2023-04-27T09:54:26.084Z,13.30
2023-04-27T09:57:18.164Z,13.40
2023-04-27T09:59:54.104Z,13.40
2023-04-27T10:02:25.430Z,13.50
2023-04-27T10:05:08.996Z,13.60
2023-04-27T10:07:36.002Z,13.70
2023-04-27T10:10:04.301Z,13.80
2023-04-27T10:12:37.762Z,13.90
2023-04-27T10:15:16.934Z,14.00
2023-04-27T10:17:50.743Z,14.20
2023-04-27T10:20:17.848Z,14.30
2023-04-27T10:22:46.902Z,14.30
2023-04-27T10:25:25.289Z,14.40
2023-04-27T10:28:02.650Z,14.40
2023-04-27T10:30:34.093Z,14.40
2023-04-27T10:33:05.557Z,14.50
2023-04-27T10:35:42.796Z,14.60
2023-04-27T10:38:15.101Z,14.60
2023-04-27T10:40:43.087Z,14.70
2023-04-27T10:43:10.250Z,14.70
2023-04-27T10:45:37.037Z,14.80
2023-04-27T10:48:03.997Z,15.00
2023-04-27T10:50:31.992Z,15.10
2023-04-27T10:53:04.541Z,15.10
2023-04-27T10:55:31.540Z,15.00
2023-04-27T10:57:58.365Z,15.00
2023-04-27T11:00:28.722Z,14.90
2023-04-27T11:02:56.822Z,15.00
2023-04-27T11:05:25.628Z,15.10
2023-04-27T11:07:52.598Z,15.20
2023-04-27T11:10:19.846Z,15.30
2023-04-27T11:12:46.639Z,15.30
2023-04-27T11:15:14.182Z,15.30
2023-04-27T11:17:41.686Z,15.40
2023-04-27T11:20:09.124Z,15.30
2023-04-27T11:22:44.971Z,15.30
2023-04-27T11:25:11.787Z,15.30
2023-04-27T11:27:39.450Z,15.30
2023-04-27T11:30:07.756Z,15.30
2023-04-27T11:32:34.505Z,15.30
2023-04-27T11:35:01.263Z,15.30
2023-04-27T11:37:28.239Z,15.30
2023-04-27T11:39:55.135Z,15.20
2023-04-27T11:42:23.439Z,15.20
2023-04-27T11:45:00.523Z,15.10
2023-04-27T11:47:30.843Z,15.10
2023-04-27T11:50:01.152Z,15.10
2023-04-27T11:52:31.960Z,15.10
2023-04-27T11:55:00.334Z,15.10
2023-04-27T11:57:28.892Z,15.10
2023-04-27T11:59:56.861Z,15.10
2023-04-27T12:02:23.773Z,15.00
2023-04-27T12:04:50.959Z,14.90
2023-04-27T12:07:18.028Z,14.90
2023-04-27T12:09:45.028Z,14.90
2023-04-27T12:12:13.969Z,14.90
2023-04-27T12:14:41.388Z,14.90
2023-04-27T12:17:08.243Z,14.90
2023-04-27T12:19:37.136Z,15.00
2023-04-27T12:22:04.531Z,15.10
2023-04-27T12:24:31.441Z,15.00
2023-04-27T12:26:58.667Z,15.00
2023-04-27T12:29:25.651Z,15.00
2023-04-27T12:31:53.224Z,15.00
2023-04-27T12:34:20.240Z,15.10
2023-04-27T12:36:47.221Z,15.10
2023-04-27T12:39:15.672Z,15.20
2023-04-27T12:41:43.857Z,15.30
2023-04-27T12:44:12.256Z,15.40
2023-04-27T12:46:40.287Z,15.50
2023-04-27T12:49:07.645Z,15.50
2023-04-27T12:51:34.688Z,15.30
2023-04-27T12:54:02.971Z,15.40
2023-04-27T12:56:29.837Z,15.50
2023-04-27T12:58:58.268Z,15.50
2023-04-27T13:01:27.564Z,15.40
2023-04-27T13:03:55.868Z,15.40
2023-04-27T13:06:22.918Z,15.30
2023-04-27T13:08:50.747Z,15.30
2023-04-27T13:11:17.986Z,15.30
2023-04-27T13:13:45.362Z,15.40
2023-04-27T13:16:12.452Z,15.30
2023-04-27T13:18:40.687Z,15.40
2023-04-27T13:21:08.055Z,15.40
2023-04-27T13:23:34.985Z,15.40
2023-04-27T13:26:02.303Z,15.40
2023-04-27T13:28:29.107Z,15.40
2023-04-27T13:30:56.339Z,15.40
2023-04-27T13:33:24.010Z,15.30
2023-04-27T13:35:51.404Z,15.20
2023-04-27T13:38:18.151Z,15.10
2023-04-27T13:40:44.962Z,15.10
2023-04-27T13:43:11.702Z,15.00
2023-04-27T13:45:39.717Z,14.90
2023-04-27T13:48:07.078Z,14.80
2023-04-27T13:50:33.864Z,14.70
2023-04-27T13:53:01.201Z,14.60
2023-04-27T13:55:28.203Z,14.60
2023-04-27T13:57:55.035Z,14.50
2023-04-27T14:00:22.013Z,14.50
2023-04-27T14:02:48.790Z,14.40
2023-04-27T14:05:15.809Z,14.40
2023-04-27T14:07:42.522Z,14.30
2023-04-27T14:10:09.931Z,14.20
2023-04-27T14:12:36.708Z,14.20
2023-04-27T14:15:04.011Z,14.20
2023-04-27T14:17:30.863Z,14.20
2023-04-27T14:19:57.638Z,14.20
2023-04-27T14:22:24.390Z,14.20
2023-04-27T14:24:52.025Z,14.10
2023-04-27T14:27:19.250Z,14.00
2023-04-27T14:29:46.277Z,14.00
2023-04-27T14:32:13.397Z,14.00
2023-04-27T14:34:41.067Z,14.00
2023-04-27T14:37:07.814Z,13.90
2023-04-27T14:39:34.562Z,13.90
2023-04-27T14:42:02.060Z,13.90
2023-04-27T14:44:28.765Z,13.90
2023-04-27T14:46:55.482Z,13.90
2023-04-27T14:49:22.355Z,13.90
2023-04-27T14:51:49.024Z,13.90
2023-04-27T14:54:16.057Z,14.00
2023-04-27T14:56:42.766Z,14.00
2023-04-27T14:59:09.422Z,14.00
2023-04-27T15:01:37.008Z,14.00
2023-04-27T15:04:04.123Z,14.00
2023-04-27T15:06:31.338Z,13.90
2023-04-27T15:08:58.025Z,14.00
2023-04-27T15:11:24.965Z,14.00
2023-04-27T15:13:52.092Z,13.90
2023-04-27T15:16:20.259Z,13.90
2023-04-27T15:18:47.233Z,13.80
2023-04-27T15:21:13.944Z,13.90
2023-04-27T15:23:41.763Z,13.90
2023-04-27T15:26:08.641Z,13.90
2023-04-27T15:28:36.257Z,13.80
2023-04-27T15:31:03.394Z,13.80
2023-04-27T15:33:30.277Z,13.60
2023-04-27T15:35:58.965Z,13.50
2023-04-27T15:38:26.520Z,13.40
2023-04-27T15:40:53.274Z,13.40
2023-04-27T15:43:20.922Z,13.40
2023-04-27T15:45:47.921Z,13.30
2023-04-27T15:48:15.199Z,13.30
2023-04-27T15:50:42.095Z,13.30
2023-04-27T15:53:08.767Z,13.20
2023-04-27T15:55:35.522Z,13.20
2023-04-27T15:58:02.405Z,13.20
2023-04-27T16:00:29.133Z,13.10
2023-04-27T16:02:57.553Z,13.10
2023-04-27T16:05:24.432Z,13.00
2023-04-27T16:07:51.177Z,13.00
2023-04-27T16:10:18.329Z,13.00
2023-04-27T16:12:45.121Z,12.90
2023-04-27T16:15:12.083Z,12.90
2023-04-27T16:17:38.897Z,12.80
2023-04-27T16:20:06.872Z,12.80
2023-04-27T16:22:37.749Z,12.70
2023-04-27T16:25:10.427Z,12.70
2023-04-27T16:27:38.298Z,12.60
2023-04-27T16:30:06.843Z,12.50
2023-04-27T16:32:35.300Z,12.40
2023-04-27T16:35:03.135Z,12.30
2023-04-27T16:37:30.158Z,12.30
2023-04-27T16:40:01.195Z,12.20
2023-04-27T16:42:28.183Z,12.20
2023-04-27T16:44:55.213Z,12.10
2023-04-27T16:47:22.092Z,12.00
2023-04-27T16:49:49.257Z,12.00
2023-04-27T16:52:17.164Z,11.90
2023-04-27T16:54:43.881Z,11.80
2023-04-27T16:57:10.676Z,11.80
2023-04-27T16:59:37.592Z,11.70
2023-04-27T17:02:16.931Z,11.70
2023-04-27T17:04:50.241Z,11.60
2023-04-27T17:07:17.001Z,11.60
2023-04-27T17:09:43.735Z,11.60
2023-04-27T17:12:14.803Z,11.60
2023-04-27T17:14:42.310Z,11.60
2023-04-27T17:17:09.280Z,11.60
2023-04-27T17:19:36.093Z,11.60
2023-04-27T17:22:04.316Z,11.60
2023-04-27T17:24:31.045Z,11.60
2023-04-27T17:26:57.755Z,11.60
2023-04-27T17:29:24.527Z,11.50
2023-04-27T17:31:51.328Z,11.50
2023-04-27T17:34:18.020Z,11.50
2023-04-27T17:36:45.073Z,11.40
2023-04-27T17:39:13.767Z,11.40
2023-04-27T17:41:40.829Z,11.30
2023-04-27T17:44:07.638Z,11.30
2023-04-27T17:46:35.431Z,11.20
2023-04-27T17:49:02.252Z,11.20
2023-04-27T17:51:29.036Z,11.20
2023-04-27T17:53:56.349Z,11.20
2023-04-27T17:56:23.559Z,11.10
2023-04-27T17:58:50.847Z,11.10
2023-04-27T18:01:17.602Z,11.10
2023-04-27T18:03:44.506Z,11.10
2023-04-27T18:06:11.604Z,11.10
2023-04-27T18:08:38.310Z,11.10
2023-04-27T18:11:06.615Z,11.10
2023-04-27T18:13:33.330Z,11.10
2023-04-27T18:16:00.150Z,11.10
2023-04-27T18:18:27.379Z,11.10
2023-04-27T18:20:54.169Z,11.10
2023-04-27T18:23:21.115Z,11.10
2023-04-27T18:25:47.879Z,11.10
2023-04-27T18:28:14.624Z,11.10
2023-04-27T18:30:41.917Z,11.20
2023-04-27T18:33:08.759Z,11.10
2023-04-27T18:35:35.635Z,11.10
2023-04-27T18:38:03.446Z,11.10
2023-04-27T18:40:30.616Z,11.10
2023-04-27T18:42:57.569Z,11.10
2023-04-27T18:45:24.397Z,11.10
2023-04-27T18:47:51.646Z,11.10
2023-04-27T18:50:19.134Z,11.10
2023-04-27T18:52:46.368Z,11.10
2023-04-27T18:55:14.218Z,11.10
2023-04-27T18:57:41.132Z,11.10
2023-04-27T19:00:09.315Z,11.10
2023-04-27T19:02:36.390Z,11.20
2023-04-27T19:05:12.919Z,11.10
2023-04-27T19:07:40.622Z,11.10
2023-04-27T19:10:08.027Z,11.10
2023-04-27T19:12:34.775Z,11.10
2023-04-27T19:15:01.558Z,11.10
2023-04-27T19:17:28.436Z,11.10
2023-04-27T19:19:55.217Z,11.10
2023-04-27T19:22:22.064Z,11.10
2023-04-27T19:24:48.824Z,11.10
2023-04-27T19:27:15.797Z,11.20
2023-04-27T19:29:53.135Z,11.20
2023-04-27T19:32:20.147Z,11.10
2023-04-27T19:34:47.033Z,11.00
2023-04-27T19:37:14.006Z,11.00
2023-04-27T19:39:40.829Z,10.90
2023-04-27T19:42:07.663Z,10.90
2023-04-27T19:44:34.534Z,10.80
2023-04-27T19:47:01.291Z,10.70
2023-04-27T19:49:32.626Z,10.70
2023-04-27T19:52:01.281Z,10.70
2023-04-27T19:54:28.083Z,10.60
2023-04-27T19:56:55.681Z,10.50
2023-04-27T19:59:22.477Z,10.50
2023-04-27T20:01:49.269Z,10.40
2023-04-27T20:04:21.344Z,10.30
2023-04-27T20:06:48.815Z,10.30
2023-04-27T20:09:15.553Z,10.30
2023-04-27T20:11:42.371Z,10.30
2023-04-27T20:14:09.246Z,10.30
2023-04-27T20:16:36.216Z,10.30
2023-04-27T20:19:05.250Z,10.40
2023-04-27T20:21:32.737Z,10.40
2023-04-27T20:23:59.717Z,10.40
2023-04-27T20:26:26.467Z,10.30
2023-04-27T20:28:53.322Z,10.30
2023-04-27T20:31:20.235Z,10.40
2023-04-27T20:33:47.037Z,10.30
2023-04-27T20:36:17.719Z,10.40
2023-04-27T20:38:45.403Z,10.40
2023-04-27T20:41:14.961Z,10.40
2023-04-27T20:43:41.648Z,10.40
2023-04-27T20:46:09.825Z,10.50
2023-04-27T20:48:36.677Z,10.50
2023-04-27T20:51:03.676Z,10.50
2023-04-27T20:53:30.665Z,10.60
2023-04-27T20:55:57.879Z,10.60
2023-04-27T20:58:24.730Z,10.60
2023-04-27T21:00:51.609Z,10.60
2023-04-27T21:03:18.698Z,10.70
2023-04-27T21:05:45.983Z,10.60
2023-04-27T21:08:12.791Z,10.70
2023-04-27T21:10:39.527Z,10.70
2023-04-27T21:13:06.445Z,10.80
2023-04-27T21:15:33.557Z,10.80
2023-04-27T21:18:00.813Z,10.70
2023-04-27T21:20:27.618Z,10.80
2023-04-27T21:22:54.393Z,10.80
2023-04-27T21:25:23.504Z,10.80
2023-04-27T21:27:50.708Z,10.80
2023-04-27T21:30:17.422Z,10.80
2023-04-27T21:32:44.221Z,10.80
2023-04-27T21:35:11.163Z,10.80
2023-04-27T21:37:38.018Z,10.90
2023-04-27T21:40:06.092Z,11.00
2023-04-27T21:42:32.765Z,11.00
2023-04-27T21:44:59.657Z,11.00
2023-04-27T21:47:26.606Z,11.00
2023-04-27T21:49:53.448Z,11.00
2023-04-27T21:52:21.472Z,11.10
2023-04-27T21:54:48.441Z,11.10
2023-04-27T21:57:15.153Z,11.10
2023-04-27T21:59:41.841Z,11.10
2023-04-27T22:02:08.663Z,11.10
2023-04-27T22:04:39.050Z,11.10
2023-04-27T22:07:07.949Z,11.20
2023-04-27T22:09:35.676Z,11.20
2023-04-27T22:12:05.767Z,11.20
2023-04-27T22:14:33.346Z,11.20
2023-04-27T22:17:00.964Z,11.20
2023-04-27T22:19:28.828Z,11.20
2023-04-27T22:21:55.735Z,11.20
2023-04-27T22:24:22.493Z,11.30
2023-04-27T22:26:49.329Z,11.20
2023-04-27T22:29:16.334Z,11.20
2023-04-27T22:31:43.291Z,11.20
2023-04-27T22:34:11.735Z,11.20
2023-04-27T22:36:38.441Z,11.20
2023-04-27T22:39:05.599Z,11.20
2023-04-27T22:41:32.344Z,11.30
2023-04-27T22:43:59.035Z,11.30
2023-04-27T22:46:25.946Z,11.30
2023-04-27T22:48:52.990Z,11.30
2023-04-27T22:51:19.772Z,11.30
2023-04-27T22:53:47.349Z,11.30
2023-04-27T22:56:14.130Z,11.40
2023-04-27T22:58:40.841Z,11.30
2023-04-27T23:01:07.671Z,11.30
2023-04-27T23:03:34.578Z,11.30
2023-04-27T23:06:01.428Z,11.30
2023-04-27T23:08:28.983Z,11.30
2023-04-27T23:10:56.829Z,11.30
2023-04-27T23:13:29.665Z,11.40
2023-04-27T23:15:56.758Z,11.40
2023-04-27T23:18:23.523Z,11.40
2023-04-27T23:20:55.646Z,11.40
2023-04-27T23:23:22.433Z,11.40
2023-04-27T23:25:49.149Z,11.40
2023-04-27T23:28:15.893Z,11.40
2023-04-27T23:30:42.668Z,11.50
2023-04-27T23:33:09.428Z,11.40
2023-04-27T23:35:36.445Z,11.50
2023-04-27T23:38:03.169Z,11.50
2023-04-27T23:40:29.848Z,11.50
2023-04-27T23:42:56.539Z,11.50
2023-04-27T23:45:23.291Z,11.50
2023-04-27T23:47:50.077Z,11.60
2023-04-27T23:50:16.968Z,11.60
2023-04-27T23:52:43.734Z,11.60
2023-04-27T23:55:10.496Z,11.60
2023-04-27T23:57:37.336Z,11.70
